sensor_id;sensor_type;location;lat;lon;timestamp;P1;durP1;ratioP1;P2;durP2;ratioP2
71172;SDS011;58875;51.996;4.504;2024-02-15T00:02:09;4.89;;;4.80;;
71172;SDS011;58875;51.996;4.504;2024-02-15T00:04:35;4.92;;;4.80;;
71172;SDS011;58875;51.996;4.504;2024-02-15T00:07:01;5.00;;;4.93;;
71172;SDS011;58875;51.996;4.504;2024-02-15T00:09:27;4.52;;;4.48;;
71172;SDS011;58875;51.996;4.504;2024-02-15T00:11:52;4.60;;;4.48;;
71172;SDS011;58875;51.996;4.504;2024-02-15T00:14:19;4.93;;;4.79;;
71172;SDS011;58875;51.996;4.504;2024-02-15T00:16:44;4.62;;;4.49;;
71172;SDS011;58875;51.996;4.504;2024-02-15T00:19:10;4.92;;;4.79;;
71172;SDS011;58875;51.996;4.504;2024-02-15T00:21:36;4.42;;;4.37;;
71172;SDS011;58875;51.996;4.504;2024-02-15T00:24:01;4.62;;;4.60;;
71172;SDS011;58875;51.996;4.504;2024-02-15T00:26:27;4.52;;;4.51;;
71172;SDS011;58875;51.996;4.504;2024-02-15T00:28:53;4.65;;;4.65;;
71172;SDS011;58875;51.996;4.504;2024-02-15T00:31:18;4.98;;;4.94;;
71172;SDS011;58875;51.996;4.504;2024-02-15T00:33:44;5.02;;;4.94;;
71172;SDS011;58875;51.996;4.504;2024-02-15T00:36:10;5.37;;;5.37;;
71172;SDS011;58875;51.996;4.504;2024-02-15T00:38:35;5.72;;;5.72;;
71172;SDS011;58875;51.996;4.504;2024-02-15T00:41:02;6.74;;;6.70;;
71172;SDS011;58875;51.996;4.504;2024-02-15T00:43:27;6.63;;;6.61;;
71172;SDS011;58875;51.996;4.504;2024-02-15T00:45:53;7.42;;;7.42;;
71172;SDS011;58875;51.996;4.504;2024-02-15T00:48:19;6.91;;;6.91;;
71172;SDS011;58875;51.996;4.504;2024-02-15T00:50:44;7.39;;;7.36;;
71172;SDS011;58875;51.996;4.504;2024-02-15T00:53:10;7.64;;;7.62;;
71172;SDS011;58875;51.996;4.504;2024-02-15T00:55:36;7.67;;;7.67;;
71172;SDS011;58875;51.996;4.504;2024-02-15T00:58:01;8.34;;;8.31;;
71172;SDS011;58875;51.996;4.504;2024-02-15T01:00:28;8.63;;;8.59;;
71172;SDS011;58875;51.996;4.504;2024-02-15T01:02:54;8.37;;;8.37;;
71172;SDS011;58875;51.996;4.504;2024-02-15T01:05:20;8.43;;;8.43;;
71172;SDS011;58875;51.996;4.504;2024-02-15T01:07:47;8.50;;;8.50;;
71172;SDS011;58875;51.996;4.504;2024-02-15T01:10:14;8.29;;;8.29;;
71172;SDS011;58875;51.996;4.504;2024-02-15T01:12:40;8.61;;;8.59;;
71172;SDS011;58875;51.996;4.504;2024-02-15T01:15:06;8.57;;;8.57;;
71172;SDS011;58875;51.996;4.504;2024-02-15T01:17:31;8.61;;;8.59;;
71172;SDS011;58875;51.996;4.504;2024-02-15T01:19:57;7.86;;;7.84;;
71172;SDS011;58875;51.996;4.504;2024-02-15T01:22:22;8.25;;;8.25;;
71172;SDS011;58875;51.996;4.504;2024-02-15T01:24:50;8.29;;;8.29;;
71172;SDS011;58875;51.996;4.504;2024-02-15T01:27:15;8.17;;;8.17;;
71172;SDS011;58875;51.996;4.504;2024-02-15T01:29:42;7.85;;;7.85;;
71172;SDS011;58875;51.996;4.504;2024-02-15T01:32:07;7.92;;;7.91;;
71172;SDS011;58875;51.996;4.504;2024-02-15T01:34:33;7.90;;;7.90;;
71172;SDS011;58875;51.996;4.504;2024-02-15T01:36:59;8.20;;;8.19;;
71172;SDS011;58875;51.996;4.504;2024-02-15T01:39:25;8.09;;;8.07;;
71172;SDS011;58875;51.996;4.504;2024-02-15T01:41:51;7.99;;;7.98;;
71172;SDS011;58875;51.996;4.504;2024-02-15T01:44:17;7.78;;;7.78;;
71172;SDS011;58875;51.996;4.504;2024-02-15T01:46:45;7.73;;;7.73;;
71172;SDS011;58875;51.996;4.504;2024-02-15T01:49:13;7.33;;;7.32;;
71172;SDS011;58875;51.996;4.504;2024-02-15T01:51:40;7.44;;;7.42;;
71172;SDS011;58875;51.996;4.504;2024-02-15T01:54:09;8.05;;;8.01;;
71172;SDS011;58875;51.996;4.504;2024-02-15T01:56:36;7.52;;;7.50;;
71172;SDS011;58875;51.996;4.504;2024-02-15T01:59:02;7.64;;;7.59;;
71172;SDS011;58875;51.996;4.504;2024-02-15T02:01:30;7.36;;;7.33;;
71172;SDS011;58875;51.996;4.504;2024-02-15T02:03:58;7.73;;;7.73;;
71172;SDS011;58875;51.996;4.504;2024-02-15T02:06:24;7.83;;;7.82;;
71172;SDS011;58875;51.996;4.504;2024-02-15T02:08:49;7.43;;;7.40;;
71172;SDS011;58875;51.996;4.504;2024-02-15T02:11:15;7.64;;;7.62;;
71172;SDS011;58875;51.996;4.504;2024-02-15T02:13:41;7.57;;;7.56;;
71172;SDS011;58875;51.996;4.504;2024-02-15T02:18:52;7.82;;;7.77;;
71172;SDS011;58875;51.996;4.504;2024-02-15T02:21:19;7.78;;;7.73;;
71172;SDS011;58875;51.996;4.504;2024-02-15T02:23:46;7.30;;;7.29;;
71172;SDS011;58875;51.996;4.504;2024-02-15T02:26:18;7.47;;;7.47;;
71172;SDS011;58875;51.996;4.504;2024-02-15T02:28:46;7.29;;;7.29;;
71172;SDS011;58875;51.996;4.504;2024-02-15T02:31:12;7.53;;;7.53;;
71172;SDS011;58875;51.996;4.504;2024-02-15T02:33:38;7.13;;;7.13;;
71172;SDS011;58875;51.996;4.504;2024-02-15T02:36:03;7.18;;;7.18;;
71172;SDS011;58875;51.996;4.504;2024-02-15T02:38:34;7.33;;;7.32;;
71172;SDS011;58875;51.996;4.504;2024-02-15T02:41:02;7.04;;;7.04;;
71172;SDS011;58875;51.996;4.504;2024-02-15T02:43:28;7.09;;;7.09;;
71172;SDS011;58875;51.996;4.504;2024-02-15T02:45:57;6.63;;;6.61;;
71172;SDS011;58875;51.996;4.504;2024-02-15T02:48:22;6.92;;;6.92;;
71172;SDS011;58875;51.996;4.504;2024-02-15T02:50:48;6.49;;;6.49;;
71172;SDS011;58875;51.996;4.504;2024-02-15T02:53:14;6.61;;;6.60;;
71172;SDS011;58875;51.996;4.504;2024-02-15T02:55:40;6.52;;;6.52;;
71172;SDS011;58875;51.996;4.504;2024-02-15T02:58:06;6.04;;;6.03;;
71172;SDS011;58875;51.996;4.504;2024-02-15T03:00:33;6.18;;;6.14;;
71172;SDS011;58875;51.996;4.504;2024-02-15T03:02:59;5.91;;;5.83;;
71172;SDS011;58875;51.996;4.504;2024-02-15T03:05:25;6.18;;;6.07;;
71172;SDS011;58875;51.996;4.504;2024-02-15T03:07:51;6.57;;;6.46;;
71172;SDS011;58875;51.996;4.504;2024-02-15T03:10:17;6.27;;;6.21;;
71172;SDS011;58875;51.996;4.504;2024-02-15T03:12:43;6.48;;;6.47;;
71172;SDS011;58875;51.996;4.504;2024-02-15T03:15:12;6.18;;;6.17;;
71172;SDS011;58875;51.996;4.504;2024-02-15T03:17:42;6.31;;;6.30;;
71172;SDS011;58875;51.996;4.504;2024-02-15T03:20:09;6.38;;;6.38;;
71172;SDS011;58875;51.996;4.504;2024-02-15T03:22:50;6.75;;;6.72;;
71172;SDS011;58875;51.996;4.504;2024-02-15T03:25:22;6.28;;;6.27;;
71172;SDS011;58875;51.996;4.504;2024-02-15T03:27:53;6.80;;;6.80;;
71172;SDS011;58875;51.996;4.504;2024-02-15T03:30:21;7.07;;;7.06;;
71172;SDS011;58875;51.996;4.504;2024-02-15T03:32:49;7.26;;;7.26;;
71172;SDS011;58875;51.996;4.504;2024-02-15T03:35:16;7.18;;;7.18;;
71172;SDS011;58875;51.996;4.504;2024-02-15T03:37:43;7.97;;;7.97;;
71172;SDS011;58875;51.996;4.504;2024-02-15T03:40:09;7.93;;;7.93;;
71172;SDS011;58875;51.996;4.504;2024-02-15T03:42:35;8.08;;;8.07;;
71172;SDS011;58875;51.996;4.504;2024-02-15T03:45:04;8.47;;;8.40;;
71172;SDS011;58875;51.996;4.504;2024-02-15T03:47:33;8.66;;;8.65;;
71172;SDS011;58875;51.996;4.504;2024-02-15T03:50:04;8.90;;;8.90;;
71172;SDS011;58875;51.996;4.504;2024-02-15T03:52:30;7.99;;;7.99;;
71172;SDS011;58875;51.996;4.504;2024-02-15T03:54:57;8.52;;;8.52;;
71172;SDS011;58875;51.996;4.504;2024-02-15T03:57:24;7.96;;;7.96;;
71172;SDS011;58875;51.996;4.504;2024-02-15T03:59:49;7.96;;;7.96;;
71172;SDS011;58875;51.996;4.504;2024-02-15T04:02:19;7.89;;;7.89;;
71172;SDS011;58875;51.996;4.504;2024-02-15T04:04:45;7.95;;;7.95;;
71172;SDS011;58875;51.996;4.504;2024-02-15T04:07:33;7.71;;;7.71;;
71172;SDS011;58875;51.996;4.504;2024-02-15T04:09:58;8.00;;;7.99;;
71172;SDS011;58875;51.996;4.504;2024-02-15T04:12:24;7.97;;;7.97;;
71172;SDS011;58875;51.996;4.504;2024-02-15T04:14:49;7.74;;;7.73;;
71172;SDS011;58875;51.996;4.504;2024-02-15T04:17:16;7.43;;;7.43;;
71172;SDS011;58875;51.996;4.504;2024-02-15T04:19:47;7.64;;;7.64;;
71172;SDS011;58875;51.996;4.504;2024-02-15T04:22:14;7.94;;;7.94;;
71172;SDS011;58875;51.996;4.504;2024-02-15T04:24:44;7.96;;;7.96;;
71172;SDS011;58875;51.996;4.504;2024-02-15T04:27:10;8.52;;;8.52;;
71172;SDS011;58875;51.996;4.504;2024-02-15T04:29:39;8.81;;;8.81;;
71172;SDS011;58875;51.996;4.504;2024-02-15T04:32:06;8.77;;;8.77;;
71172;SDS011;58875;51.996;4.504;2024-02-15T04:34:36;9.05;;;8.99;;
71172;SDS011;58875;51.996;4.504;2024-02-15T04:37:02;9.13;;;9.12;;
71172;SDS011;58875;51.996;4.504;2024-02-15T04:39:34;9.81;;;9.81;;
71172;SDS011;58875;51.996;4.504;2024-02-15T04:42:01;10.05;;;10.05;;
71172;SDS011;58875;51.996;4.504;2024-02-15T04:44:27;10.42;;;10.42;;
71172;SDS011;58875;51.996;4.504;2024-02-15T04:46:53;11.02;;;11.02;;
71172;SDS011;58875;51.996;4.504;2024-02-15T04:49:19;11.58;;;11.58;;
71172;SDS011;58875;51.996;4.504;2024-02-15T04:51:45;12.00;;;12.00;;
71172;SDS011;58875;51.996;4.504;2024-02-15T04:54:12;11.74;;;11.73;;
71172;SDS011;58875;51.996;4.504;2024-02-15T04:56:41;12.02;;;12.02;;
71172;SDS011;58875;51.996;4.504;2024-02-15T04:59:10;11.99;;;11.99;;
71172;SDS011;58875;51.996;4.504;2024-02-15T05:01:42;11.86;;;11.84;;
71172;SDS011;58875;51.996;4.504;2024-02-15T05:04:08;11.53;;;11.53;;
71172;SDS011;58875;51.996;4.504;2024-02-15T05:06:35;10.94;;;10.93;;
71172;SDS011;58875;51.996;4.504;2024-02-15T05:09:02;10.80;;;10.80;;
71172;SDS011;58875;51.996;4.504;2024-02-15T05:11:38;10.60;;;10.60;;
71172;SDS011;58875;51.996;4.504;2024-02-15T05:14:11;10.51;;;10.48;;
71172;SDS011;58875;51.996;4.504;2024-02-15T05:16:37;10.40;;;10.40;;
71172;SDS011;58875;51.996;4.504;2024-02-15T05:19:08;9.97;;;9.94;;
71172;SDS011;58875;51.996;4.504;2024-02-15T05:21:38;9.99;;;9.97;;
71172;SDS011;58875;51.996;4.504;2024-02-15T05:24:04;9.59;;;9.57;;
71172;SDS011;58875;51.996;4.504;2024-02-15T05:26:30;10.30;;;10.15;;
71172;SDS011;58875;51.996;4.504;2024-02-15T05:28:55;10.17;;;10.13;;
71172;SDS011;58875;51.996;4.504;2024-02-15T05:31:21;10.23;;;10.21;;
71172;SDS011;58875;51.996;4.504;2024-02-15T05:33:50;9.93;;;9.93;;
71172;SDS011;58875;51.996;4.504;2024-02-15T05:36:18;10.24;;;10.21;;
71172;SDS011;58875;51.996;4.504;2024-02-15T05:38:46;10.28;;;10.26;;
71172;SDS011;58875;51.996;4.504;2024-02-15T05:41:12;10.31;;;10.31;;
71172;SDS011;58875;51.996;4.504;2024-02-15T05:43:39;10.64;;;10.64;;
71172;SDS011;58875;51.996;4.504;2024-02-15T05:46:07;10.13;;;10.13;;
71172;SDS011;58875;51.996;4.504;2024-02-15T05:48:34;10.09;;;10.08;;
71172;SDS011;58875;51.996;4.504;2024-02-15T05:51:04;10.03;;;10.01;;
71172;SDS011;58875;51.996;4.504;2024-02-15T05:53:31;10.73;;;10.64;;
71172;SDS011;58875;51.996;4.504;2024-02-15T05:56:04;10.74;;;10.70;;
71172;SDS011;58875;51.996;4.504;2024-02-15T05:58:38;10.29;;;10.27;;
71172;SDS011;58875;51.996;4.504;2024-02-15T06:01:05;9.66;;;9.66;;
71172;SDS011;58875;51.996;4.504;2024-02-15T06:03:32;9.11;;;9.11;;
71172;SDS011;58875;51.996;4.504;2024-02-15T06:05:59;9.09;;;9.09;;
71172;SDS011;58875;51.996;4.504;2024-02-15T06:08:27;8.95;;;8.95;;
71172;SDS011;58875;51.996;4.504;2024-02-15T06:10:54;7.71;;;7.71;;
71172;SDS011;58875;51.996;4.504;2024-02-15T06:13:21;7.12;;;7.12;;
71172;SDS011;58875;51.996;4.504;2024-02-15T06:15:48;6.95;;;6.95;;
71172;SDS011;58875;51.996;4.504;2024-02-15T06:18:24;6.74;;;6.74;;
71172;SDS011;58875;51.996;4.504;2024-02-15T06:20:59;6.85;;;6.85;;
71172;SDS011;58875;51.996;4.504;2024-02-15T06:23:34;6.88;;;6.88;;
71172;SDS011;58875;51.996;4.504;2024-02-15T06:26:00;6.80;;;6.80;;
71172;SDS011;58875;51.996;4.504;2024-02-15T06:28:27;6.66;;;6.66;;
71172;SDS011;58875;51.996;4.504;2024-02-15T06:31:11;7.03;;;7.03;;
71172;SDS011;58875;51.996;4.504;2024-02-15T06:33:56;7.31;;;7.31;;
71172;SDS011;58875;51.996;4.504;2024-02-15T06:36:53;7.51;;;7.51;;
71172;SDS011;58875;51.996;4.504;2024-02-15T06:39:39;7.00;;;7.00;;
71172;SDS011;58875;51.996;4.504;2024-02-15T06:42:07;7.15;;;7.15;;
71172;SDS011;58875;51.996;4.504;2024-02-15T06:44:45;6.83;;;6.83;;
71172;SDS011;58875;51.996;4.504;2024-02-15T06:47:12;6.83;;;6.83;;
71172;SDS011;58875;51.996;4.504;2024-02-15T06:49:38;6.99;;;6.99;;
71172;SDS011;58875;51.996;4.504;2024-02-15T06:52:09;7.21;;;7.21;;
71172;SDS011;58875;51.996;4.504;2024-02-15T06:54:39;7.68;;;7.68;;
71172;SDS011;58875;51.996;4.504;2024-02-15T06:57:06;7.55;;;7.55;;
71172;SDS011;58875;51.996;4.504;2024-02-15T06:59:33;7.74;;;7.74;;
71172;SDS011;58875;51.996;4.504;2024-02-15T07:01:59;8.01;;;8.01;;
71172;SDS011;58875;51.996;4.504;2024-02-15T07:04:26;8.51;;;8.51;;
71172;SDS011;58875;51.996;4.504;2024-02-15T07:06:52;8.49;;;8.49;;
71172;SDS011;58875;51.996;4.504;2024-02-15T07:09:23;8.45;;;8.45;;
71172;SDS011;58875;51.996;4.504;2024-02-15T07:11:50;8.84;;;8.84;;
71172;SDS011;58875;51.996;4.504;2024-02-15T07:14:16;8.92;;;8.92;;
71172;SDS011;58875;51.996;4.504;2024-02-15T07:16:48;8.69;;;8.69;;
71172;SDS011;58875;51.996;4.504;2024-02-15T07:19:14;8.96;;;8.96;;
71172;SDS011;58875;51.996;4.504;2024-02-15T07:21:41;8.94;;;8.94;;
71172;SDS011;58875;51.996;4.504;2024-02-15T07:24:07;8.79;;;8.79;;
71172;SDS011;58875;51.996;4.504;2024-02-15T07:26:34;8.81;;;8.81;;
71172;SDS011;58875;51.996;4.504;2024-02-15T07:29:01;8.89;;;8.88;;
71172;SDS011;58875;51.996;4.504;2024-02-15T07:31:31;8.08;;;8.08;;
71172;SDS011;58875;51.996;4.504;2024-02-15T07:33:57;8.60;;;8.60;;
71172;SDS011;58875;51.996;4.504;2024-02-15T07:36:23;8.52;;;8.52;;
71172;SDS011;58875;51.996;4.504;2024-02-15T07:38:49;8.53;;;8.53;;
71172;SDS011;58875;51.996;4.504;2024-02-15T07:41:17;8.29;;;8.28;;
71172;SDS011;58875;51.996;4.504;2024-02-15T07:43:44;7.83;;;7.83;;
71172;SDS011;58875;51.996;4.504;2024-02-15T07:46:14;7.80;;;7.80;;
71172;SDS011;58875;51.996;4.504;2024-02-15T07:48:44;7.73;;;7.73;;
71172;SDS011;58875;51.996;4.504;2024-02-15T07:51:14;7.61;;;7.61;;
71172;SDS011;58875;51.996;4.504;2024-02-15T07:53:41;7.94;;;7.94;;
71172;SDS011;58875;51.996;4.504;2024-02-15T07:56:08;7.58;;;7.58;;
71172;SDS011;58875;51.996;4.504;2024-02-15T07:58:39;7.67;;;7.67;;
71172;SDS011;58875;51.996;4.504;2024-02-15T08:01:06;7.05;;;7.05;;
71172;SDS011;58875;51.996;4.504;2024-02-15T08:03:34;6.90;;;6.90;;
71172;SDS011;58875;51.996;4.504;2024-02-15T08:06:00;6.58;;;6.58;;
71172;SDS011;58875;51.996;4.504;2024-02-15T08:08:31;6.59;;;6.59;;
71172;SDS011;58875;51.996;4.504;2024-02-15T08:10:59;6.73;;;6.71;;
71172;SDS011;58875;51.996;4.504;2024-02-15T08:13:24;6.69;;;6.65;;
71172;SDS011;58875;51.996;4.504;2024-02-15T08:15:54;6.45;;;6.45;;
71172;SDS011;58875;51.996;4.504;2024-02-15T08:18:21;6.63;;;6.63;;
71172;SDS011;58875;51.996;4.504;2024-02-15T08:20:47;6.82;;;6.82;;
71172;SDS011;58875;51.996;4.504;2024-02-15T08:23:12;7.09;;;7.09;;
71172;SDS011;58875;51.996;4.504;2024-02-15T08:25:38;7.37;;;7.37;;
71172;SDS011;58875;51.996;4.504;2024-02-15T08:28:05;7.57;;;7.57;;
71172;SDS011;58875;51.996;4.504;2024-02-15T08:30:32;7.89;;;7.89;;
71172;SDS011;58875;51.996;4.504;2024-02-15T08:32:58;8.27;;;8.27;;
71172;SDS011;58875;51.996;4.504;2024-02-15T08:35:23;9.12;;;9.12;;
71172;SDS011;58875;51.996;4.504;2024-02-15T08:37:49;8.90;;;8.90;;
71172;SDS011;58875;51.996;4.504;2024-02-15T08:40:17;9.17;;;9.17;;
71172;SDS011;58875;51.996;4.504;2024-02-15T08:42:45;9.03;;;9.03;;
71172;SDS011;58875;51.996;4.504;2024-02-15T08:45:14;9.11;;;9.11;;
71172;SDS011;58875;51.996;4.504;2024-02-15T08:47:40;8.90;;;8.90;;
71172;SDS011;58875;51.996;4.504;2024-02-15T08:50:08;9.01;;;9.01;;
71172;SDS011;58875;51.996;4.504;2024-02-15T08:52:35;8.80;;;8.80;;
71172;SDS011;58875;51.996;4.504;2024-02-15T08:55:07;8.29;;;8.29;;
71172;SDS011;58875;51.996;4.504;2024-02-15T08:57:34;7.45;;;7.45;;
71172;SDS011;58875;51.996;4.504;2024-02-15T09:00:04;7.18;;;7.18;;
71172;SDS011;58875;51.996;4.504;2024-02-15T09:02:38;6.74;;;6.74;;
71172;SDS011;58875;51.996;4.504;2024-02-15T09:05:10;6.50;;;6.50;;
71172;SDS011;58875;51.996;4.504;2024-02-15T09:07:39;6.29;;;6.29;;
71172;SDS011;58875;51.996;4.504;2024-02-15T09:10:06;6.04;;;6.04;;
71172;SDS011;58875;51.996;4.504;2024-02-15T09:12:34;6.49;;;6.49;;
71172;SDS011;58875;51.996;4.504;2024-02-15T09:15:02;6.28;;;6.27;;
71172;SDS011;58875;51.996;4.504;2024-02-15T09:17:28;6.44;;;6.43;;
71172;SDS011;58875;51.996;4.504;2024-02-15T09:19:56;6.71;;;6.69;;
71172;SDS011;58875;51.996;4.504;2024-02-15T09:22:22;6.36;;;6.34;;
71172;SDS011;58875;51.996;4.504;2024-02-15T09:24:48;6.24;;;6.24;;
71172;SDS011;58875;51.996;4.504;2024-02-15T09:27:13;6.24;;;6.24;;
71172;SDS011;58875;51.996;4.504;2024-02-15T09:29:39;6.56;;;6.56;;
71172;SDS011;58875;51.996;4.504;2024-02-15T09:32:05;6.07;;;6.07;;
71172;SDS011;58875;51.996;4.504;2024-02-15T09:34:31;6.05;;;6.02;;
71172;SDS011;58875;51.996;4.504;2024-02-15T09:36:58;6.10;;;6.10;;
71172;SDS011;58875;51.996;4.504;2024-02-15T09:39:23;6.12;;;6.12;;
71172;SDS011;58875;51.996;4.504;2024-02-15T09:41:49;6.39;;;6.38;;
71172;SDS011;58875;51.996;4.504;2024-02-15T09:44:23;6.30;;;6.30;;
71172;SDS011;58875;51.996;4.504;2024-02-15T09:47:02;6.53;;;6.53;;
71172;SDS011;58875;51.996;4.504;2024-02-15T09:49:37;6.79;;;6.79;;
71172;SDS011;58875;51.996;4.504;2024-02-15T09:52:07;6.66;;;6.64;;
71172;SDS011;58875;51.996;4.504;2024-02-15T09:54:40;6.62;;;6.62;;
71172;SDS011;58875;51.996;4.504;2024-02-15T09:57:09;6.09;;;6.09;;
71172;SDS011;58875;51.996;4.504;2024-02-15T09:59:38;6.63;;;6.61;;
71172;SDS011;58875;51.996;4.504;2024-02-15T10:02:05;6.48;;;6.47;;
71172;SDS011;58875;51.996;4.504;2024-02-15T10:04:39;6.17;;;6.17;;
71172;SDS011;58875;51.996;4.504;2024-02-15T10:07:05;6.42;;;6.42;;
71172;SDS011;58875;51.996;4.504;2024-02-15T10:09:34;6.39;;;6.39;;
71172;SDS011;58875;51.996;4.504;2024-02-15T10:12:02;6.26;;;6.26;;
71172;SDS011;58875;51.996;4.504;2024-02-15T10:14:32;6.71;;;6.70;;
71172;SDS011;58875;51.996;4.504;2024-02-15T10:17:07;6.34;;;6.34;;
71172;SDS011;58875;51.996;4.504;2024-02-15T10:19:38;6.85;;;6.85;;
71172;SDS011;58875;51.996;4.504;2024-02-15T10:22:08;7.09;;;7.09;;
71172;SDS011;58875;51.996;4.504;2024-02-15T10:24:35;6.94;;;6.94;;
71172;SDS011;58875;51.996;4.504;2024-02-15T10:27:02;7.03;;;7.03;;
71172;SDS011;58875;51.996;4.504;2024-02-15T10:29:29;6.75;;;6.75;;
71172;SDS011;58875;51.996;4.504;2024-02-15T10:31:56;6.99;;;6.99;;
71172;SDS011;58875;51.996;4.504;2024-02-15T10:34:27;7.01;;;7.01;;
71172;SDS011;58875;51.996;4.504;2024-02-15T10:36:53;6.76;;;6.76;;
71172;SDS011;58875;51.996;4.504;2024-02-15T10:39:21;6.83;;;6.83;;
71172;SDS011;58875;51.996;4.504;2024-02-15T10:41:52;6.99;;;6.99;;
71172;SDS011;58875;51.996;4.504;2024-02-15T10:44:23;6.87;;;6.87;;
71172;SDS011;58875;51.996;4.504;2024-02-15T10:46:51;7.30;;;7.30;;
71172;SDS011;58875;51.996;4.504;2024-02-15T10:49:27;6.95;;;6.95;;
71172;SDS011;58875;51.996;4.504;2024-02-15T10:51:57;6.86;;;6.86;;
71172;SDS011;58875;51.996;4.504;2024-02-15T10:57:11;6.62;;;6.62;;
71172;SDS011;58875;51.996;4.504;2024-02-15T10:59:40;6.82;;;6.82;;
71172;SDS011;58875;51.996;4.504;2024-02-15T11:02:26;7.96;;;7.96;;
71172;SDS011;58875;51.996;4.504;2024-02-15T11:04:55;7.68;;;7.68;;
71172;SDS011;58875;51.996;4.504;2024-02-15T11:07:29;7.69;;;7.69;;
71172;SDS011;58875;51.996;4.504;2024-02-15T11:09:56;8.12;;;8.12;;
71172;SDS011;58875;51.996;4.504;2024-02-15T11:12:24;8.30;;;8.30;;
71172;SDS011;58875;51.996;4.504;2024-02-15T11:14:51;8.57;;;8.57;;
71172;SDS011;58875;51.996;4.504;2024-02-15T11:20:05;9.65;;;9.65;;
71172;SDS011;58875;51.996;4.504;2024-02-15T11:22:35;10.31;;;10.31;;
71172;SDS011;58875;51.996;4.504;2024-02-15T11:25:07;10.59;;;10.59;;
71172;SDS011;58875;51.996;4.504;2024-02-15T11:27:37;11.04;;;11.04;;
71172;SDS011;58875;51.996;4.504;2024-02-15T11:30:05;10.57;;;10.57;;
71172;SDS011;58875;51.996;4.504;2024-02-15T11:35:13;8.43;;;8.43;;
71172;SDS011;58875;51.996;4.504;2024-02-15T11:42:42;6.88;;;6.88;;
71172;SDS011;58875;51.996;4.504;2024-02-15T11:45:09;6.47;;;6.47;;
71172;SDS011;58875;51.996;4.504;2024-02-15T11:47:41;6.85;;;6.85;;
71172;SDS011;58875;51.996;4.504;2024-02-15T11:50:08;6.52;;;6.52;;
71172;SDS011;58875;51.996;4.504;2024-02-15T11:52:43;6.25;;;6.25;;
71172;SDS011;58875;51.996;4.504;2024-02-15T11:55:11;6.07;;;6.07;;
71172;SDS011;58875;51.996;4.504;2024-02-15T11:57:57;6.13;;;6.13;;
71172;SDS011;58875;51.996;4.504;2024-02-15T12:00:41;5.44;;;5.44;;
71172;SDS011;58875;51.996;4.504;2024-02-15T12:03:33;5.30;;;5.30;;
71172;SDS011;58875;51.996;4.504;2024-02-15T12:06:18;4.73;;;4.73;;
71172;SDS011;58875;51.996;4.504;2024-02-15T12:09:02;4.69;;;4.69;;
71172;SDS011;58875;51.996;4.504;2024-02-15T12:11:47;4.55;;;4.55;;
71172;SDS011;58875;51.996;4.504;2024-02-15T12:14:31;4.42;;;4.42;;
71172;SDS011;58875;51.996;4.504;2024-02-15T12:17:15;3.87;;;3.87;;
71172;SDS011;58875;51.996;4.504;2024-02-15T12:20:00;3.63;;;3.63;;
71172;SDS011;58875;51.996;4.504;2024-02-15T12:25:01;3.64;;;3.64;;
71172;SDS011;58875;51.996;4.504;2024-02-15T12:27:55;3.72;;;3.72;;
71172;SDS011;58875;51.996;4.504;2024-02-15T12:30:22;3.50;;;3.50;;
71172;SDS011;58875;51.996;4.504;2024-02-15T12:32:50;3.50;;;3.49;;
71172;SDS011;58875;51.996;4.504;2024-02-15T12:35:20;3.25;;;3.24;;
71172;SDS011;58875;51.996;4.504;2024-02-15T12:37:49;3.04;;;3.04;;
71172;SDS011;58875;51.996;4.504;2024-02-15T12:40:34;3.06;;;3.06;;
71172;SDS011;58875;51.996;4.504;2024-02-15T12:43:01;3.14;;;3.14;;
71172;SDS011;58875;51.996;4.504;2024-02-15T12:45:31;3.18;;;3.18;;
71172;SDS011;58875;51.996;4.504;2024-02-15T12:48:03;3.41;;;3.41;;
71172;SDS011;58875;51.996;4.504;2024-02-15T12:50:30;3.17;;;3.17;;
71172;SDS011;58875;51.996;4.504;2024-02-15T12:52:56;3.23;;;3.23;;
71172;SDS011;58875;51.996;4.504;2024-02-15T12:55:28;3.43;;;3.43;;
71172;SDS011;58875;51.996;4.504;2024-02-15T12:58:00;3.31;;;3.31;;
71172;SDS011;58875;51.996;4.504;2024-02-15T13:00:33;3.64;;;3.64;;
71172;SDS011;58875;51.996;4.504;2024-02-15T13:03:02;3.63;;;3.63;;
71172;SDS011;58875;51.996;4.504;2024-02-15T13:05:29;3.65;;;3.65;;
71172;SDS011;58875;51.996;4.504;2024-02-15T13:07:56;3.64;;;3.64;;
71172;SDS011;58875;51.996;4.504;2024-02-15T13:10:27;3.70;;;3.70;;
71172;SDS011;58875;51.996;4.504;2024-02-15T13:12:54;3.86;;;3.86;;
71172;SDS011;58875;51.996;4.504;2024-02-15T13:15:21;3.57;;;3.57;;
71172;SDS011;58875;51.996;4.504;2024-02-15T13:17:52;4.01;;;4.01;;
71172;SDS011;58875;51.996;4.504;2024-02-15T13:20:22;3.83;;;3.83;;
71172;SDS011;58875;51.996;4.504;2024-02-15T13:23:02;3.80;;;3.80;;
71172;SDS011;58875;51.996;4.504;2024-02-15T13:25:36;3.84;;;3.84;;
71172;SDS011;58875;51.996;4.504;2024-02-15T13:28:11;4.33;;;4.33;;
71172;SDS011;58875;51.996;4.504;2024-02-15T13:30:38;4.41;;;4.41;;
71172;SDS011;58875;51.996;4.504;2024-02-15T13:33:04;4.10;;;4.10;;
71172;SDS011;58875;51.996;4.504;2024-02-15T13:35:31;4.10;;;4.10;;
71172;SDS011;58875;51.996;4.504;2024-02-15T13:37:57;4.21;;;4.21;;
71172;SDS011;58875;51.996;4.504;2024-02-15T13:40:26;4.03;;;4.03;;
71172;SDS011;58875;51.996;4.504;2024-02-15T13:42:57;4.29;;;4.29;;
71172;SDS011;58875;51.996;4.504;2024-02-15T13:45:30;3.92;;;3.92;;
71172;SDS011;58875;51.996;4.504;2024-02-15T13:47:59;3.97;;;3.97;;
71172;SDS011;58875;51.996;4.504;2024-02-15T13:50:28;3.88;;;3.88;;
71172;SDS011;58875;51.996;4.504;2024-02-15T13:52:55;3.47;;;3.47;;
71172;SDS011;58875;51.996;4.504;2024-02-15T13:55:23;3.56;;;3.52;;
71172;SDS011;58875;51.996;4.504;2024-02-15T13:57:51;3.98;;;3.93;;
71172;SDS011;58875;51.996;4.504;2024-02-15T14:00:23;3.86;;;3.84;;
71172;SDS011;58875;51.996;4.504;2024-02-15T14:02:59;3.82;;;3.81;;
71172;SDS011;58875;51.996;4.504;2024-02-15T14:05:29;4.17;;;4.15;;
71172;SDS011;58875;51.996;4.504;2024-02-15T14:07:56;3.98;;;3.97;;
71172;SDS011;58875;51.996;4.504;2024-02-15T14:10:23;3.81;;;3.75;;
71172;SDS011;58875;51.996;4.504;2024-02-15T14:12:50;3.94;;;3.87;;
71172;SDS011;58875;51.996;4.504;2024-02-15T14:15:34;3.76;;;3.69;;
71172;SDS011;58875;51.996;4.504;2024-02-15T14:18:08;3.58;;;3.58;;
71172;SDS011;58875;51.996;4.504;2024-02-15T14:20:36;4.00;;;3.97;;
71172;SDS011;58875;51.996;4.504;2024-02-15T14:23:02;3.80;;;3.69;;
71172;SDS011;58875;51.996;4.504;2024-02-15T14:25:31;3.76;;;3.65;;
71172;SDS011;58875;51.996;4.504;2024-02-15T14:27:57;3.86;;;3.78;;
71172;SDS011;58875;51.996;4.504;2024-02-15T14:30:24;3.47;;;3.37;;
71172;SDS011;58875;51.996;4.504;2024-02-15T14:33:09;3.58;;;3.57;;
71172;SDS011;58875;51.996;4.504;2024-02-15T14:35:39;3.54;;;3.53;;
71172;SDS011;58875;51.996;4.504;2024-02-15T14:38:05;3.51;;;3.50;;
71172;SDS011;58875;51.996;4.504;2024-02-15T14:43:10;3.90;;;3.90;;
71172;SDS011;58875;51.996;4.504;2024-02-15T14:45:38;3.79;;;3.79;;
71172;SDS011;58875;51.996;4.504;2024-02-15T14:48:06;3.98;;;3.98;;
71172;SDS011;58875;51.996;4.504;2024-02-15T14:50:37;3.91;;;3.90;;
71172;SDS011;58875;51.996;4.504;2024-02-15T14:53:06;3.67;;;3.67;;
71172;SDS011;58875;51.996;4.504;2024-02-15T14:55:35;3.75;;;3.75;;
71172;SDS011;58875;51.996;4.504;2024-02-15T14:58:04;3.70;;;3.70;;
71172;SDS011;58875;51.996;4.504;2024-02-15T15:00:31;4.07;;;4.07;;
71172;SDS011;58875;51.996;4.504;2024-02-15T15:02:56;4.09;;;4.09;;
71172;SDS011;58875;51.996;4.504;2024-02-15T15:05:22;3.65;;;3.65;;
71172;SDS011;58875;51.996;4.504;2024-02-15T15:08:07;3.89;;;3.88;;
71172;SDS011;58875;51.996;4.504;2024-02-15T15:10:51;3.34;;;3.33;;
71172;SDS011;58875;51.996;4.504;2024-02-15T15:13:35;3.61;;;3.61;;
71172;SDS011;58875;51.996;4.504;2024-02-15T15:16:01;3.39;;;3.39;;
71172;SDS011;58875;51.996;4.504;2024-02-15T15:18:32;3.43;;;3.43;;